.
WxDataArchive / Data Records for 2015-06-02
2015-06-01 June 2015 2015-06-03

Data Records for Tuesday, 02 June 2015

Time	Temp	Chill	HIndex	Humid	Dewpt	 Wind 	HiWind	WindDir	Rain 	Barom
-----	----	-----	------	-----	-----	------	------	-------	-----	-----
00:00	51.6	51.6	51.6	88	48.2	0	0	---	0.00	30.174 
00:05	51.3	51.3	51.3	88	47.9	0	0	---	0.00	30.174 
00:10	51.1	51.1	51.1	88	47.7	0	0	---	0.00	30.174 
00:15	51.0	51.0	51.0	88	47.6	0	0	---	0.00	30.175 
00:20	50.8	50.8	50.8	88	47.4	0	0	---	0.00	30.175 
00:25	50.5	50.5	50.5	88	47.1	0	0	---	0.00	30.175 
00:30	50.4	50.4	50.4	88	47.0	0	0	---	0.00	30.177 
00:35	50.1	50.1	50.1	88	46.7	0	0	---	0.00	30.177 
00:40	49.9	49.9	49.9	88	46.5	0	0	---	0.00	30.177 
00:45	49.8	49.8	49.8	88	46.4	0	0	---	0.00	30.175 
00:50	49.5	49.5	49.5	89	46.4	0	0	---	0.00	30.175 
00:55	49.4	49.4	49.4	89	46.3	0	0	---	0.00	30.175 
01:00	49.2	49.2	49.2	89	46.1	0	0	---	0.00	30.176 
01:05	49.1	49.1	49.1	89	46.0	0	0	---	0.00	30.176 
01:10	48.9	48.9	48.9	89	45.8	0	0	---	0.00	30.176 
01:15	48.8	48.8	48.8	89	45.7	0	0	---	0.00	30.175 
01:20	48.6	48.6	48.6	90	45.8	0	0	---	0.00	30.175 
01:25	48.5	48.5	48.5	90	45.7	0	0	---	0.00	30.175 
01:30	48.3	48.3	48.3	90	45.5	0	0	---	0.00	30.172 
01:35	48.2	48.2	48.2	90	45.4	0	0	---	0.00	30.172 
01:40	47.9	47.9	47.9	90	45.1	0	0	---	0.00	30.172 
01:45	47.7	47.7	47.7	90	44.9	0	0	---	0.00	30.172 
01:50	47.6	47.6	47.6	91	45.1	0	0	---	0.00	30.172 
01:55	47.4	47.4	47.4	91	44.9	0	0	---	0.00	30.172 
02:00	47.1	47.1	47.1	91	44.6	0	0	---	0.00	30.170 
02:05	47.0	47.0	47.0	91	44.5	0	0	---	0.00	30.170 
02:10	46.8	46.8	46.8	91	44.3	0	0	---	0.00	30.170 
02:15	46.7	46.7	46.7	91	44.2	0	0	---	0.00	30.162 
02:20	46.5	46.5	46.5	91	44.0	0	0	---	0.00	30.162 
02:25	46.4	46.4	46.4	91	43.9	0	0	---	0.00	30.162 
02:30	46.2	46.2	46.2	91	43.7	0	0	---	0.00	30.160 
02:35	46.2	46.2	46.2	92	44.0	0	0	---	0.00	30.160 
02:40	46.1	46.1	46.1	92	43.9	0	0	---	0.00	30.160 
02:45	46.1	46.1	46.1	92	43.9	0	0	---	0.00	30.158 
02:50	46.1	46.1	46.1	92	43.9	0	0	---	0.00	30.158 
02:55	46.1	46.1	46.1	92	43.9	0	0	---	0.00	30.158 
03:00	46.1	46.1	46.1	92	43.9	0	0	---	0.00	30.158 
03:05	46.1	46.1	46.1	92	43.9	0	0	---	0.00	30.158 
03:10	46.1	46.1	46.1	92	43.9	0	0	---	0.00	30.158 
03:15	46.1	46.1	46.1	92	43.9	0	0	---	0.00	30.147 
03:20	46.1	46.1	46.1	92	43.9	0	0	---	0.00	30.147 
03:25	46.1	46.1	46.1	92	43.9	0	0	---	0.00	30.147 
03:30	46.0	46.0	46.0	92	43.8	0	0	---	0.00	30.144 
03:35	45.8	45.8	45.8	92	43.6	0	0	---	0.00	30.144 
03:40	45.7	45.7	45.7	92	43.5	0	0	---	0.00	30.144 
03:45	45.5	45.5	45.5	92	43.3	0	0	---	0.00	30.142 
03:50	45.4	45.4	45.4	92	43.2	0	0	---	0.00	30.142 
03:55	45.2	45.2	45.2	92	43.0	0	0	---	0.00	30.142 
04:00	45.1	45.1	45.1	92	42.9	0	0	---	0.00	30.139 
04:05	44.9	44.9	44.9	93	43.0	0	0	---	0.00	30.139 
04:10	44.8	44.8	44.8	93	42.9	0	0	---	0.00	30.139 
04:15	44.8	44.8	44.8	93	42.9	0	0	---	0.00	30.140 
04:20	44.6	44.6	44.6	93	42.7	0	0	---	0.00	30.140 
04:25	44.6	44.6	44.6	93	42.7	0	0	---	0.00	30.140 
04:30	44.6	44.6	44.6	93	42.7	0	0	---	0.00	30.142 
04:35	44.6	44.6	44.6	93	42.7	0	0	---	0.00	30.142 
04:40	44.5	44.5	44.5	93	42.6	0	0	---	0.00	30.142 
04:45	44.5	44.5	44.5	93	42.6	0	0	---	0.00	30.138 
04:50	44.5	44.5	44.5	93	42.6	0	0	---	0.00	30.138 
04:55	44.8	44.8	44.8	93	42.9	0	0	---	0.00	30.138 
05:00	44.9	44.9	44.9	94	43.3	0	0	---	0.00	30.141 
05:05	44.9	44.9	44.9	93	43.0	0	0	---	0.00	30.141 
05:10	44.9	44.9	44.9	93	43.0	0	0	---	0.00	30.141 
05:15	45.1	45.1	45.1	94	43.5	0	0	---	0.00	30.143 
05:20	45.1	45.1	45.1	94	43.5	0	0	---	0.00	30.143 
05:25	45.1	45.1	45.1	94	43.5	0	0	---	0.00	30.143 
05:30	44.9	44.9	44.9	94	43.3	0	0	---	0.00	30.146 
05:35	45.1	45.1	45.1	94	43.5	0	0	---	0.00	30.146 
05:40	45.1	45.1	45.1	94	43.5	0	0	---	0.00	30.146 
05:45	45.1	45.1	45.1	94	43.5	0	0	---	0.00	30.147 
05:50	45.1	45.1	45.1	94	43.5	0	0	---	0.00	30.147 
05:55	44.9	44.9	44.9	94	43.3	0	0	---	0.00	30.147 
06:00	44.8	44.8	44.8	94	43.2	0	0	---	0.00	30.152 
06:05	44.8	44.8	44.8	94	43.2	0	0	---	0.00	30.152 
06:10	44.8	44.8	44.8	94	43.2	0	0	---	0.00	30.152 
06:15	44.6	44.6	44.6	94	43.0	0	0	---	0.00	30.147 
06:20	44.8	44.8	44.8	94	43.2	0	0	---	0.00	30.147 
06:25	44.8	44.8	44.8	94	43.2	0	0	---	0.00	30.147 
06:30	44.9	44.9	44.9	94	43.3	0	0	---	0.00	30.148 
06:35	44.9	44.9	44.9	94	43.3	0	0	---	0.00	30.148 
06:40	44.9	44.9	44.9	94	43.3	0	0	---	0.00	30.148 
06:45	44.9	44.9	44.9	94	43.3	0	0	---	0.00	30.152 
06:50	45.2	45.2	45.2	94	43.6	0	0	---	0.00	30.152 
06:55	45.4	45.4	45.4	94	43.8	0	0	---	0.00	30.152 
07:00	45.5	45.5	45.5	94	43.9	0	0	---	0.00	30.151 
07:05	45.7	45.7	45.7	94	44.1	0	0	---	0.00	30.151 
07:10	46.0	46.0	46.0	94	44.4	0	0	---	0.00	30.151 
07:15	46.2	46.2	46.2	94	44.6	0	1	22	0.00	30.150 
07:20	46.7	46.7	46.7	94	45.1	0	1	22	0.00	30.150 
07:25	47.3	47.3	47.3	94	45.7	0	1	22	0.00	30.150 
07:30	47.9	47.9	47.9	94	46.3	0	3	22	0.00	30.157 
07:35	48.3	48.3	48.3	93	46.4	0	1	22	0.00	30.157 
07:40	48.8	48.8	48.8	93	46.9	0	2	22	0.00	30.157 
07:45	49.6	49.6	49.6	91	47.1	0	2	22	0.00	30.158 
07:50	50.4	50.4	50.4	88	47.0	1	4	22	0.00	30.158 
07:55	51.0	51.0	51.0	85	46.7	0	2	22	0.00	30.158 
08:00	51.6	51.6	51.6	82	46.3	1	4	22	0.00	30.157 
08:05	52.0	52.0	52.0	79	45.7	1	5	90	0.00	30.157 
08:10	52.8	52.8	52.8	76	45.4	1	3	90	0.00	30.157 
08:15	53.2	53.2	53.2	74	45.1	0	2	90	0.00	30.164 
08:20	53.6	53.6	53.6	73	45.2	1	5	90	0.00	30.164 
08:25	54.1	54.1	54.1	72	45.3	1	4	158	0.00	30.164 
08:30	54.5	54.5	54.5	70	44.9	1	3	135	0.00	30.170 
08:35	55.1	55.1	55.1	70	45.5	1	3	135	0.00	30.170 
08:40	55.3	55.3	55.3	69	45.3	0	3	135	0.00	30.170 
08:45	55.7	55.7	55.7	67	44.9	1	4	90	0.00	30.169 
08:50	56.2	56.2	56.2	67	45.4	1	3	90	0.00	30.169 
08:55	56.5	56.5	56.5	67	45.7	1	4	90	0.00	30.169 
09:00	56.9	56.9	56.9	69	46.8	1	3	90	0.00	30.172 
09:05	57.2	57.2	57.2	68	46.7	1	3	90	0.00	30.172 
09:10	57.3	57.3	57.3	66	46.0	1	4	112	0.00	30.172 
09:15	57.8	57.8	57.8	67	46.9	1	4	112	0.00	30.172 
09:20	58.3	58.3	58.3	69	48.2	1	3	112	0.00	30.172 
09:25	58.6	58.6	58.6	66	47.3	1	4	112	0.00	30.172 
09:30	58.9	58.9	58.9	66	47.6	1	4	135	0.00	30.174 
09:35	59.2	59.2	59.2	67	48.2	1	4	135	0.00	30.174 
09:40	59.5	59.5	59.5	67	48.5	1	5	90	0.00	30.174 
09:45	59.9	59.9	59.9	65	48.1	1	3	90	0.00	30.175 
09:50	60.2	60.2	60.2	66	48.8	1	5	90	0.00	30.175 
09:55	60.7	60.7	60.7	64	48.4	1	7	45	0.00	30.175 
10:00	61.0	61.0	61.0	63	48.3	1	5	68	0.00	30.172 
10:05	61.2	61.2	61.2	64	48.9	1	5	112	0.00	30.172 
10:10	61.2	61.2	61.2	63	48.5	1	5	90	0.00	30.172 
10:15	61.6	61.6	61.6	64	49.3	1	5	135	0.00	30.169 
10:20	62.1	62.1	62.1	64	49.8	1	4	90	0.00	30.169 
10:25	62.1	62.1	62.1	62	48.9	2	6	112	0.00	30.169 
10:30	62.1	62.1	62.1	62	48.9	3	7	90	0.00	30.177 
10:35	62.3	62.3	62.3	63	49.5	1	4	112	0.00	30.177 
10:40	62.4	62.4	62.4	62	49.2	2	5	90	0.00	30.177 
10:45	62.6	62.6	62.6	61	49.0	3	9	90	0.00	30.167 
10:50	62.4	62.4	62.4	63	49.6	3	7	90	0.00	30.167 
10:55	62.3	62.3	62.3	61	48.7	3	7	112	0.00	30.167 
11:00	62.7	62.7	62.7	62	49.5	2	6	90	0.00	30.163 
11:05	63.1	63.1	63.1	60	49.0	2	6	90	0.00	30.163 
11:10	63.2	63.2	63.2	62	50.0	3	6	90	0.00	30.163 
11:15	63.1	63.1	63.1	60	49.0	4	9	90	0.00	30.165 
11:20	62.9	62.9	62.9	63	50.1	2	7	90	0.00	30.165 
11:25	63.4	63.4	63.4	63	50.6	2	7	90	0.00	30.165 
11:30	63.9	63.9	63.9	62	50.6	2	5	90	0.00	30.160 
11:35	64.0	64.0	64.0	61	50.3	2	6	90	0.00	30.160 
11:40	64.3	64.3	64.3	59	49.7	2	6	90	0.00	30.160 
11:45	63.9	63.9	63.9	60	49.7	2	8	90	0.00	30.157 
11:50	63.9	63.9	63.9	60	49.7	3	9	90	0.00	30.157 
11:55	63.9	63.9	63.9	59	49.3	3	8	112	0.00	30.157 
12:00	63.5	63.5	63.5	62	50.2	2	9	90	0.00	30.149 
12:05	63.7	63.7	63.7	61	50.0	2	5	90	0.00	30.149 
12:10	64.3	64.3	64.3	62	51.0	3	6	90	0.00	30.149 
12:15	64.8	64.8	64.8	60	50.6	3	9	112	0.00	30.150 
12:20	64.3	64.3	64.3	60	50.1	2	4	112	0.00	30.150 
12:25	64.0	64.0	64.0	63	51.1	1	4	90	0.00	30.150 
12:30	64.2	64.2	64.2	61	50.5	3	7	90	0.00	30.154 
12:35	64.7	64.7	64.7	62	51.4	3	10	90	0.00	30.154 
12:40	64.8	64.8	64.8	59	50.1	3	9	68	0.00	30.154 
12:45	64.8	64.8	64.8	61	51.0	3	7	90	0.00	30.150 
12:50	65.2	65.2	65.2	62	51.8	3	10	90	0.00	30.150 
12:55	66.0	66.0	66.0	62	52.6	2	5	90	0.00	30.150 
13:00	66.4	66.4	66.4	61	52.5	2	8	90	0.00	30.151 
13:05	66.6	66.6	66.6	59	51.8	2	5	90	0.00	30.151 
13:10	66.6	66.6	66.6	59	51.8	2	6	90	0.00	30.151 
13:15	66.6	66.6	66.6	60	52.3	3	10	90	0.00	30.147 
13:20	66.8	66.8	66.8	58	51.5	4	6	90	0.00	30.147 
13:25	66.3	66.3	66.3	58	51.1	2	8	90	0.00	30.147 
13:30	65.6	65.6	65.6	60	51.3	2	6	90	0.00	30.147 
13:35	65.5	65.5	65.5	60	51.2	2	7	90	0.00	30.147 
13:40	65.3	65.3	65.3	60	51.1	2	5	112	0.00	30.147 
13:45	65.0	65.0	65.0	61	51.2	2	6	112	0.00	30.150 
13:50	64.8	64.8	64.8	61	51.0	2	5	90	0.00	30.150 
13:55	64.7	64.7	64.7	62	51.4	1	3	68	0.00	30.150 
14:00	64.8	64.8	64.8	62	51.5	2	4	90	0.00	30.144 
14:05	64.8	64.8	64.8	61	51.0	2	6	112	0.00	30.144 
14:10	64.8	64.8	64.8	62	51.5	2	4	90	0.00	30.144 
14:15	65.0	65.0	65.0	62	51.7	2	9	90	0.00	30.136 
14:20	65.0	65.0	65.0	62	51.7	3	5	90	0.00	30.136 
14:25	65.3	65.3	65.3	65	53.2	2	5	90	0.00	30.136 
14:30	65.6	65.6	65.6	60	51.3	3	10	90	0.00	30.121 
14:35	66.0	66.0	66.0	61	52.2	2	6	112	0.00	30.121 
14:40	66.1	66.1	66.1	59	51.3	3	9	90	0.00	30.121 
14:45	66.1	66.1	66.1	60	51.8	3	9	90	0.00	30.121 
14:50	66.1	66.1	66.1	60	51.8	3	6	68	0.00	30.121 
14:55	66.4	66.4	66.4	59	51.6	2	6	90	0.00	30.121 
15:00	67.1	67.1	67.1	62	53.6	1	6	90	0.00	30.108 
15:05	67.6	67.6	67.6	57	51.8	3	6	90	0.00	30.108 
15:10	67.9	67.9	67.9	57	52.1	2	5	90	0.00	30.108 
15:15	67.6	67.6	67.6	57	51.8	4	7	90	0.00	30.107 
15:20	67.6	67.6	67.6	58	52.3	3	9	90	0.00	30.107 
15:25	68.6	68.6	68.6	58	53.2	2	6	90	0.00	30.107 
15:30	68.8	68.8	68.8	57	52.9	3	9	90	0.00	30.096 
15:35	68.9	68.9	68.9	57	53.0	3	9	90	0.00	30.096 
15:40	68.9	68.9	68.9	57	53.0	3	7	90	0.00	30.096 
15:45	69.3	69.3	69.3	56	52.9	3	9	90	0.00	30.093 
15:50	68.9	68.9	68.9	58	53.5	3	7	90	0.00	30.093 
15:55	68.9	68.9	68.9	56	52.5	2	6	90	0.00	30.093 
16:00	68.6	68.6	68.6	55	51.8	3	8	90	0.00	30.088 
16:05	67.8	67.8	67.8	56	51.5	3	13	90	0.00	30.088 
16:10	67.8	67.8	67.8	57	52.0	3	6	112	0.00	30.088 
16:15	67.8	67.8	67.8	58	52.5	2	6	90	0.00	30.089 
16:20	68.4	68.4	68.4	59	53.5	1	9	68	0.00	30.089 
16:25	68.8	68.8	68.8	57	52.9	2	5	68	0.00	30.089 
16:30	68.8	68.8	68.8	56	52.5	3	6	90	0.00	30.085 
16:35	69.1	69.1	69.1	57	53.2	2	6	68	0.00	30.085 
16:40	68.6	68.6	68.6	57	52.7	3	9	90	0.00	30.085 
16:45	68.1	68.1	68.1	57	52.3	3	7	90	0.00	30.086 
16:50	68.3	68.3	68.3	57	52.5	2	4	112	0.00	30.086 
16:55	68.3	68.3	68.3	56	52.0	1	4	90	0.00	30.086 
17:00	68.3	68.3	68.3	56	52.0	3	5	90	0.00	30.084 
17:05	68.1	68.1	68.1	56	51.8	3	7	90	0.00	30.084 
17:10	67.4	67.4	67.4	57	51.6	2	5	90	0.00	30.084 
17:15	67.9	67.9	67.9	58	52.6	2	5	90	0.00	30.084 
17:20	67.8	67.8	67.8	57	52.0	3	7	90	0.00	30.084 
17:25	67.3	67.3	67.3	56	51.1	2	5	90	0.00	30.084 
17:30	67.3	67.3	67.3	61	53.4	1	4	90	0.00	30.079 
17:35	67.8	67.8	67.8	57	52.0	2	5	90	0.00	30.079 
17:40	67.6	67.6	67.6	57	51.8	1	4	90	0.00	30.079 
17:45	67.3	67.3	67.3	59	52.5	1	3	112	0.00	30.082 
17:50	67.3	67.3	67.3	57	51.5	2	5	90	0.00	30.082 
17:55	67.6	67.6	67.6	57	51.8	1	3	90	0.00	30.082 
18:00	68.1	68.1	68.1	58	52.8	1	5	112	0.00	30.077 
18:05	67.8	67.8	67.8	57	52.0	3	7	90	0.00	30.077 
18:10	66.8	66.8	66.8	58	51.5	2	6	90	0.00	30.077 
18:15	66.9	66.9	66.9	59	52.1	2	6	68	0.00	30.075 
18:20	67.1	67.1	67.1	58	51.8	3	6	90	0.00	30.075 
18:25	67.1	67.1	67.1	58	51.8	3	6	90	0.00	30.075 
18:30	66.9	66.9	66.9	56	50.7	3	6	90	0.00	30.074 
18:35	67.1	67.1	67.1	58	51.8	2	6	112	0.00	30.074 
18:40	67.3	67.3	67.3	58	52.0	1	4	90	0.00	30.074 
18:45	67.3	67.3	67.3	56	51.1	2	6	90	0.00	30.074 
18:50	66.6	66.6	66.6	58	51.4	2	4	90	0.00	30.074 
18:55	66.3	66.3	66.3	58	51.1	2	5	68	0.00	30.074 
19:00	66.4	66.4	66.4	58	51.2	2	5	112	0.00	30.075 
19:05	66.6	66.6	66.6	58	51.4	2	5	68	0.00	30.075 
19:10	66.6	66.6	66.6	57	50.9	2	6	90	0.00	30.075 
19:15	66.4	66.4	66.4	57	50.7	1	4	90	0.00	30.074 
19:20	66.1	66.1	66.1	58	50.9	1	3	90	0.00	30.074 
19:25	65.6	65.6	65.6	58	50.4	1	5	90	0.00	30.074 
19:30	65.6	65.6	65.6	58	50.4	1	4	90	0.00	30.072 
19:35	65.6	65.6	65.6	57	49.9	2	5	68	0.00	30.072 
19:40	65.6	65.6	65.6	56	49.5	3	6	90	0.00	30.072 
19:45	65.6	65.6	65.6	57	49.9	2	5	90	0.00	30.075 
19:50	65.6	65.6	65.6	57	49.9	1	5	90	0.00	30.075 
19:55	65.5	65.5	65.5	57	49.9	2	7	90	0.00	30.075 
20:00	65.3	65.3	65.3	57	49.7	2	5	112	0.00	30.082 
20:05	65.2	65.2	65.2	57	49.6	1	3	90	0.00	30.082 
20:10	65.0	65.0	65.0	58	49.9	1	3	68	0.00	30.082 
20:15	64.7	64.7	64.7	58	49.6	1	4	68	0.00	30.080 
20:20	64.5	64.5	64.5	58	49.4	1	5	90	0.00	30.080 
20:25	64.3	64.3	64.3	58	49.2	1	3	90	0.00	30.080 
20:30	64.0	64.0	64.0	58	48.9	0	3	90	0.00	30.083 
20:35	63.7	63.7	63.7	60	49.5	0	1	90	0.00	30.083 
20:40	63.4	63.4	63.4	60	49.3	0	2	90	0.00	30.083 
20:45	63.1	63.1	63.1	59	48.5	0	2	90	0.00	30.085 
20:50	62.7	62.7	62.7	60	48.6	0	2	90	0.00	30.085 
20:55	62.4	62.4	62.4	60	48.3	0	3	90	0.00	30.085 
21:00	62.1	62.1	62.1	61	48.5	0	2	90	0.00	30.087 
21:05	61.8	61.8	61.8	61	48.2	0	1	90	0.00	30.087 
21:10	61.5	61.5	61.5	62	48.4	0	1	90	0.00	30.087 
21:15	61.2	61.2	61.2	62	48.1	1	4	90	0.00	30.088 
21:20	61.0	61.0	61.0	62	47.9	0	3	90	0.00	30.088 
21:25	60.7	60.7	60.7	62	47.6	0	2	90	0.00	30.088 
21:30	60.4	60.4	60.4	63	47.7	0	2	90	0.00	30.090 
21:35	60.1	60.1	60.1	64	47.9	0	1	90	0.00	30.090 
21:40	59.8	59.8	59.8	64	47.6	0	2	90	0.00	30.090 
21:45	59.6	59.6	59.6	64	47.4	0	2	90	0.00	30.094 
21:50	59.3	59.3	59.3	65	47.5	0	2	90	0.00	30.094 
21:55	59.0	59.0	59.0	65	47.2	0	2	90	0.00	30.094 
22:00	58.9	58.9	58.9	65	47.2	0	2	90	0.00	30.097 
22:05	58.7	58.7	58.7	65	47.0	0	1	90	0.00	30.097 
22:10	58.6	58.6	58.6	66	47.3	0	2	90	0.00	30.097 
22:15	58.4	58.4	58.4	66	47.1	0	2	90	0.00	30.095 
22:20	58.3	58.3	58.3	66	47.0	0	3	90	0.00	30.095 
22:25	58.1	58.1	58.1	67	47.2	0	1	90	0.00	30.095 
22:30	58.0	58.0	58.0	67	47.1	0	1	90	0.00	30.100 
22:35	57.6	57.6	57.6	67	46.7	0	1	90	0.00	30.100 
22:40	57.5	57.5	57.5	68	47.0	0	0	---	0.00	30.100 
22:45	57.2	57.2	57.2	69	47.1	0	0	---	0.00	30.103 
22:50	56.7	56.7	56.7	69	46.6	0	0	---	0.00	30.103 
22:55	56.5	56.5	56.5	70	46.8	0	0	---	0.00	30.103 
23:00	56.0	56.0	56.0	71	46.7	0	0	---	0.00	30.112 
23:05	55.7	55.7	55.7	72	46.8	0	0	---	0.00	30.112 
23:10	55.4	55.4	55.4	73	46.9	0	0	---	0.00	30.112 
23:15	55.1	55.1	55.1	74	47.0	0	0	---	0.00	30.108 
23:20	54.8	54.8	54.8	75	47.0	0	0	---	0.00	30.108 
23:25	54.7	54.7	54.7	75	46.9	0	0	---	0.00	30.108 
23:30	54.4	54.4	54.4	75	46.6	0	0	---	0.00	30.104 
23:35	54.2	54.2	54.2	75	46.4	0	0	---	0.00	30.104 
23:40	54.1	54.1	54.1	75	46.4	0	1	90	0.00	30.104 
23:45	54.1	54.1	54.1	74	46.0	0	1	90	0.00	30.099 
23:50	54.4	54.4	54.4	73	45.9	0	1	90	0.00	30.099 
23:55	54.5	54.5	54.5	73	46.0	0	2	90	0.00	30.099 

CoCoRaHS
IN-AL-39
A2 Web Hosting
Creative Commons License
GoDaddy
search engine by freefind advanced

loaded 2018-11-16 00:53:20 • last modified 2010-11-18 10:43:29
Privacy PolicyDisclaimer
• wx.awcolley.com is powered by PmWiki v.2002016 •
• all content (unless otherwise noted) © 2018 A W Colley